| time (UTC) | temp C | wind direction | speed KPH | gust KPH | rain 1hr cm | rain 24hr cm | rain mn cm | humidity % | barometer mb |
| 20260903094112 | 20 | 304 | 14.5 | 32.2 | 0.00 | 0.00 | 0.00 | 45 | 1019.0 |
| 20260903091113 | 20 | 303 | 12.9 | 30.6 | 0.00 | 0.00 | 0.00 | 47 | 1020.2 |
| 20260903084112 | 19 | 306 | 11.3 | 30.6 | 0.00 | 0.00 | 0.00 | 49 | 1020.4 |
| 20260903081113 | 17 | 50 | 6.4 | 20.9 | 0.00 | 0.00 | 0.00 | 65 | 1021.3 |
| 20260903074113 | 15 | 80 | 1.6 | 6.4 | 0.00 | 0.00 | 0.00 | 72 | 1022.4 |
| 20260903071113 | 14 | 83 | 3.2 | 8.0 | 0.00 | 0.00 | 0.00 | 76 | 1022.8 |
| 20260903064112 | 12 | 95 | 1.6 | 4.8 | 0.00 | 0.00 | 0.00 | 84 | 1023.7 |
| 20260903061113 | 9 | 251 | 1.6 | 3.2 | 0.00 | 0.00 | 0.00 | 92 | 1025.1 |
| 20260903054112 | 8 | 243 | 1.6 | 4.8 | 0.00 | 0.00 | 0.00 | 92 | 1025.4 |
| 20260903051113 | 8 | 268 | 1.6 | 8.0 | 0.00 | 0.00 | 0.00 | 92 | 1024.2 |
| 20260903044112 | 8 | 288 | 1.6 | 6.4 | 0.00 | 0.00 | 0.00 | 92 | 1024.2 |
| 20260903041112 | 9 | 282 | 1.6 | 4.8 | 0.00 | 0.00 | 0.00 | 92 | 1024.1 |
| 20260903031113 | 10 | 285 | 3.2 | 4.8 | 0.00 | 0.00 | 0.00 | 91 | 1024.8 |
| 20260903021112 | 11 | 284 | 1.6 | 3.2 | 0.00 | 0.00 | 0.00 | 90 | 1024.4 |
| 20260903014112 | 11 | 235 | 1.6 | 3.2 | 0.00 | 0.00 | 0.00 | 89 | 1024.3 |
| 20260903011113 | 11 | 232 | 1.6 | 3.2 | 0.00 | 0.00 | 0.00 | 90 | 1024.3 |
| 20260903004113 | 11 | 260 | 1.6 | 3.2 | 0.00 | 0.00 | 0.00 | 90 | 1024.4 |
| 20260903001512 | 11 | 223 | 0.0 | 1.6 | 0.00 | 0.00 | 0.00 | 89 | 1024.4 |
| 20260902234113 | 11 | 280 | 1.6 | 4.8 | 0.00 | 0.00 | 0.00 | 89 | 1024.3 |
| 20260902224114 | 11 | 296 | 1.6 | 6.4 | 0.00 | 0.00 | 0.00 | 88 | 1023.0 |
| 20260902221113 | 11 | 262 | 1.6 | 4.8 | 0.00 | 0.00 | 0.00 | 87 | 1022.9 |
| 20260902214113 | 11 | 279 | 1.6 | 4.8 | 0.00 | 0.00 | 0.00 | 86 | 1022.9 |
| 20260902211113 | 11 | 272 | 3.2 | 9.7 | 0.00 | 0.00 | 0.00 | 87 | 1023.2 |
| 20260902204114 | 11 | 283 | 1.6 | 4.8 | 0.00 | 0.00 | 0.00 | 86 | 1023.2 |
| 20260902201113 | 11 | 288 | 1.6 | 3.2 | 0.00 | 0.00 | 0.00 | 86 | 1023.1 |
| 20260902194113 | 11 | 276 | 1.6 | 4.8 | 0.00 | 0.00 | 0.00 | 86 | 1023.2 |
| 20260902191113 | 11 | 279 | 1.6 | 4.8 | 0.00 | 0.00 | 0.00 | 84 | 1023.0 |
| 20260902184113 | 12 | 286 | 1.6 | 4.8 | 0.00 | 0.00 | 0.00 | 83 | 1021.7 |
| 20260902181113 | 12 | 274 | 1.6 | 3.2 | 0.00 | 0.00 | 0.00 | 80 | 1021.2 |
| 20260902174113 | 13 | 258 | 1.6 | 3.2 | 0.00 | 0.00 | 0.00 | 78 | 1019.6 |
| 20260902171113 | 15 | 266 | 3.2 | 6.4 | 0.00 | 0.00 | 0.00 | 76 | 1019.2 |
| 20260902164113 | 15 | 265 | 3.2 | 6.4 | 0.00 | 0.00 | 0.00 | 77 | 1019.1 |
| 20260902161113 | 15 | 279 | 3.2 | 6.4 | 0.00 | 0.00 | 0.00 | 75 | 1018.8 |
| 20260902154113 | 17 | 235 | 4.8 | 9.7 | 0.00 | 0.00 | 0.00 | 71 | 1018.0 |
| 20260902151113 | 19 | 238 | 3.2 | 8.0 | 0.00 | 0.00 | 0.00 | 71 | 1017.0 |
| 20260902144113 | 20 | 243 | 1.6 | 6.4 | 0.00 | 0.00 | 0.00 | 71 | 1016.6 |
| 20260902141113 | 21 | 220 | 1.6 | 6.4 | 0.00 | 0.00 | 0.00 | 63 | 1016.0 |
| 20260902134111 | 21 | 236 | 1.6 | 6.4 | 0.00 | 0.00 | 0.00 | 65 | 1016.4 |
| 20260902131113 | 21 | 231 | 1.6 | 4.8 | 0.00 | 0.00 | 0.00 | 64 | 1016.4 |
| 20260902124112 | 21 | 200 | 1.6 | 4.8 | 0.00 | 0.00 | 0.00 | 65 | 1017.6 |
| 20260902121113 | 19 | 201 | 1.6 | 6.4 | 0.00 | 0.00 | 0.00 | 71 | 1018.2 |
| 20260902114113 | 20 | 155 | 1.6 | 6.4 | 0.00 | 0.00 | 0.00 | 68 | 1018.0 |
| 20260902111113 | 20 | 134 | 3.2 | 6.4 | 0.00 | 0.00 | 0.00 | 63 | 1017.6 |
| 20260902104113 | 21 | 101 | 3.2 | 9.7 | 0.00 | 0.00 | 0.00 | 61 | 1018.7 |
| 20260902101113 | 21 | 119 | 3.2 | 9.7 | 0.00 | 0.00 | 0.00 | 61 | 1018.6 |